sensor_id;sensor_type;location;lat;lon;timestamp;temperature;humidity
17813;DHT22;9030;50.792;8.320;2023-03-05T00:00:25;3.00;99.90
17813;DHT22;9030;50.792;8.320;2023-03-05T00:02:53;3.00;99.90
17813;DHT22;9030;50.792;8.320;2023-03-05T00:05:20;2.90;99.90
17813;DHT22;9030;50.792;8.320;2023-03-05T00:07:47;2.90;99.90
17813;DHT22;9030;50.792;8.320;2023-03-05T00:10:13;2.90;99.90
17813;DHT22;9030;50.792;8.320;2023-03-05T00:12:40;2.90;99.90
17813;DHT22;9030;50.792;8.320;2023-03-05T00:15:08;2.90;99.90
17813;DHT22;9030;50.792;8.320;2023-03-05T00:17:35;2.90;99.90
17813;DHT22;9030;50.792;8.320;2023-03-05T00:20:04;2.80;99.90
17813;DHT22;9030;50.792;8.320;2023-03-05T00:22:30;2.80;99.90
17813;DHT22;9030;50.792;8.320;2023-03-05T00:24:59;2.80;99.90
17813;DHT22;9030;50.792;8.320;2023-03-05T00:27:26;2.80;99.90
17813;DHT22;9030;50.792;8.320;2023-03-05T00:29:53;2.80;99.90
17813;DHT22;9030;50.792;8.320;2023-03-05T00:32:19;2.80;99.90
17813;DHT22;9030;50.792;8.320;2023-03-05T00:34:46;2.80;99.90
17813;DHT22;9030;50.792;8.320;2023-03-05T00:37:15;2.80;99.90
17813;DHT22;9030;50.792;8.320;2023-03-05T00:39:42;2.80;99.90
17813;DHT22;9030;50.792;8.320;2023-03-05T00:42:09;2.70;99.90
17813;DHT22;9030;50.792;8.320;2023-03-05T00:44:35;2.70;99.90
17813;DHT22;9030;50.792;8.320;2023-03-05T00:47:02;2.70;99.90
17813;DHT22;9030;50.792;8.320;2023-03-05T00:49:30;2.70;99.90
17813;DHT22;9030;50.792;8.320;2023-03-05T00:51:57;2.70;99.90
17813;DHT22;9030;50.792;8.320;2023-03-05T00:54:25;2.60;99.90
17813;DHT22;9030;50.792;8.320;2023-03-05T00:56:51;2.60;99.90
17813;DHT22;9030;50.792;8.320;2023-03-05T00:59:18;2.60;99.90
17813;DHT22;9030;50.792;8.320;2023-03-05T01:01:45;2.60;99.90
17813;DHT22;9030;50.792;8.320;2023-03-05T01:04:11;2.50;99.90
17813;DHT22;9030;50.792;8.320;2023-03-05T01:06:38;2.60;99.90
17813;DHT22;9030;50.792;8.320;2023-03-05T01:09:09;2.50;99.90
17813;DHT22;9030;50.792;8.320;2023-03-05T01:11:37;2.50;99.90
17813;DHT22;9030;50.792;8.320;2023-03-05T01:14:04;2.50;99.90
17813;DHT22;9030;50.792;8.320;2023-03-05T01:16:30;2.50;99.90
17813;DHT22;9030;50.792;8.320;2023-03-05T01:18:57;2.40;99.90
17813;DHT22;9030;50.792;8.320;2023-03-05T01:21:24;2.40;99.90
17813;DHT22;9030;50.792;8.320;2023-03-05T01:23:51;2.40;99.90
17813;DHT22;9030;50.792;8.320;2023-03-05T01:26:18;2.50;99.90
17813;DHT22;9030;50.792;8.320;2023-03-05T01:28:46;2.50;99.90
17813;DHT22;9030;50.792;8.320;2023-03-05T01:31:13;2.40;99.90
17813;DHT22;9030;50.792;8.320;2023-03-05T01:33:39;2.40;99.90
17813;DHT22;9030;50.792;8.320;2023-03-05T01:36:08;2.30;99.90
17813;DHT22;9030;50.792;8.320;2023-03-05T01:38:37;2.30;99.90
17813;DHT22;9030;50.792;8.320;2023-03-05T01:41:04;2.30;99.90
17813;DHT22;9030;50.792;8.320;2023-03-05T01:43:31;2.30;99.90
17813;DHT22;9030;50.792;8.320;2023-03-05T01:46:33;2.30;99.90
17813;DHT22;9030;50.792;8.320;2023-03-05T01:49:16;2.30;99.90
17813;DHT22;9030;50.792;8.320;2023-03-05T01:51:59;2.30;99.90
17813;DHT22;9030;50.792;8.320;2023-03-05T01:54:31;2.20;99.90
17813;DHT22;9030;50.792;8.320;2023-03-05T01:57:03;2.20;99.90
17813;DHT22;9030;50.792;8.320;2023-03-05T01:59:33;2.30;99.90
17813;DHT22;9030;50.792;8.320;2023-03-05T02:02:03;2.30;99.90
17813;DHT22;9030;50.792;8.320;2023-03-05T02:04:36;2.20;99.90
17813;DHT22;9030;50.792;8.320;2023-03-05T02:07:04;2.20;99.90
17813;DHT22;9030;50.792;8.320;2023-03-05T02:09:32;2.20;99.90
17813;DHT22;9030;50.792;8.320;2023-03-05T02:11:59;2.10;99.90
17813;DHT22;9030;50.792;8.320;2023-03-05T02:14:26;2.20;99.90
17813;DHT22;9030;50.792;8.320;2023-03-05T02:16:54;2.20;99.90
17813;DHT22;9030;50.792;8.320;2023-03-05T02:19:22;2.20;99.90
17813;DHT22;9030;50.792;8.320;2023-03-05T02:21:50;2.20;99.90
17813;DHT22;9030;50.792;8.320;2023-03-05T02:24:34;2.10;99.90
17813;DHT22;9030;50.792;8.320;2023-03-05T02:27:02;2.10;99.90
17813;DHT22;9030;50.792;8.320;2023-03-05T02:29:30;2.20;99.90
17813;DHT22;9030;50.792;8.320;2023-03-05T02:31:59;2.10;99.90
17813;DHT22;9030;50.792;8.320;2023-03-05T02:34:26;2.10;99.90
17813;DHT22;9030;50.792;8.320;2023-03-05T02:36:54;2.10;99.90
17813;DHT22;9030;50.792;8.320;2023-03-05T02:39:22;2.00;99.90
17813;DHT22;9030;50.792;8.320;2023-03-05T02:41:49;2.00;99.90
17813;DHT22;9030;50.792;8.320;2023-03-05T02:44:18;2.10;99.90
17813;DHT22;9030;50.792;8.320;2023-03-05T02:46:45;2.00;99.90
17813;DHT22;9030;50.792;8.320;2023-03-05T02:49:12;2.00;99.90
17813;DHT22;9030;50.792;8.320;2023-03-05T02:51:40;2.00;99.90
17813;DHT22;9030;50.792;8.320;2023-03-05T02:54:08;2.10;99.90
17813;DHT22;9030;50.792;8.320;2023-03-05T02:56:35;2.00;99.90
17813;DHT22;9030;50.792;8.320;2023-03-05T02:59:02;2.00;99.90
17813;DHT22;9030;50.792;8.320;2023-03-05T03:01:30;1.90;99.90
17813;DHT22;9030;50.792;8.320;2023-03-05T03:03:59;2.00;99.90
17813;DHT22;9030;50.792;8.320;2023-03-05T03:06:26;2.00;99.90
17813;DHT22;9030;50.792;8.320;2023-03-05T03:08:53;1.90;99.90
17813;DHT22;9030;50.792;8.320;2023-03-05T03:11:22;2.00;99.90
17813;DHT22;9030;50.792;8.320;2023-03-05T03:13:49;1.90;99.90
17813;DHT22;9030;50.792;8.320;2023-03-05T03:16:17;1.90;99.90
17813;DHT22;9030;50.792;8.320;2023-03-05T03:18:46;1.80;99.90
17813;DHT22;9030;50.792;8.320;2023-03-05T03:21:18;1.90;99.90
17813;DHT22;9030;50.792;8.320;2023-03-05T03:23:46;1.80;99.90
17813;DHT22;9030;50.792;8.320;2023-03-05T03:26:13;1.80;99.90
17813;DHT22;9030;50.792;8.320;2023-03-05T03:28:41;1.70;99.90
17813;DHT22;9030;50.792;8.320;2023-03-05T03:31:08;1.80;99.90
17813;DHT22;9030;50.792;8.320;2023-03-05T03:33:38;1.70;99.90
17813;DHT22;9030;50.792;8.320;2023-03-05T03:36:05;1.80;99.90
17813;DHT22;9030;50.792;8.320;2023-03-05T03:38:34;1.70;99.90
17813;DHT22;9030;50.792;8.320;2023-03-05T03:41:01;1.70;99.90
17813;DHT22;9030;50.792;8.320;2023-03-05T03:43:28;1.70;99.90
17813;DHT22;9030;50.792;8.320;2023-03-05T03:45:56;1.70;99.90
17813;DHT22;9030;50.792;8.320;2023-03-05T03:48:23;1.60;99.90
17813;DHT22;9030;50.792;8.320;2023-03-05T03:50:53;1.70;99.90
17813;DHT22;9030;50.792;8.320;2023-03-05T03:53:20;1.60;99.90
17813;DHT22;9030;50.792;8.320;2023-03-05T03:55:49;1.60;99.90
17813;DHT22;9030;50.792;8.320;2023-03-05T03:58:15;1.60;99.90
17813;DHT22;9030;50.792;8.320;2023-03-05T04:00:45;1.60;99.90
17813;DHT22;9030;50.792;8.320;2023-03-05T04:03:14;1.60;99.90
17813;DHT22;9030;50.792;8.320;2023-03-05T04:05:41;1.60;99.90
17813;DHT22;9030;50.792;8.320;2023-03-05T04:08:08;1.60;99.90
17813;DHT22;9030;50.792;8.320;2023-03-05T04:10:36;1.60;99.90
17813;DHT22;9030;50.792;8.320;2023-03-05T04:13:04;1.50;99.90
17813;DHT22;9030;50.792;8.320;2023-03-05T04:15:31;1.50;99.90
17813;DHT22;9030;50.792;8.320;2023-03-05T04:17:59;1.50;99.90
17813;DHT22;9030;50.792;8.320;2023-03-05T04:20:27;1.50;99.90
17813;DHT22;9030;50.792;8.320;2023-03-05T04:22:54;1.50;99.90
17813;DHT22;9030;50.792;8.320;2023-03-05T04:25:21;1.50;99.90
17813;DHT22;9030;50.792;8.320;2023-03-05T04:27:48;1.50;99.90
17813;DHT22;9030;50.792;8.320;2023-03-05T04:30:15;1.50;99.90
17813;DHT22;9030;50.792;8.320;2023-03-05T04:32:42;1.40;99.90
17813;DHT22;9030;50.792;8.320;2023-03-05T04:35:09;1.40;99.90
17813;DHT22;9030;50.792;8.320;2023-03-05T04:37:38;1.40;99.90
17813;DHT22;9030;50.792;8.320;2023-03-05T04:40:06;1.30;99.90
17813;DHT22;9030;50.792;8.320;2023-03-05T04:42:33;1.30;99.90
17813;DHT22;9030;50.792;8.320;2023-03-05T04:45:00;1.40;99.90
17813;DHT22;9030;50.792;8.320;2023-03-05T04:47:27;1.40;99.90
17813;DHT22;9030;50.792;8.320;2023-03-05T04:49:56;1.40;99.90
17813;DHT22;9030;50.792;8.320;2023-03-05T04:52:23;1.40;99.90
17813;DHT22;9030;50.792;8.320;2023-03-05T04:54:51;1.40;99.90
17813;DHT22;9030;50.792;8.320;2023-03-05T04:57:19;1.50;99.90
17813;DHT22;9030;50.792;8.320;2023-03-05T04:59:46;1.40;99.90
17813;DHT22;9030;50.792;8.320;2023-03-05T05:02:13;1.40;99.90
17813;DHT22;9030;50.792;8.320;2023-03-05T05:04:40;1.40;99.90
17813;DHT22;9030;50.792;8.320;2023-03-05T05:07:09;1.40;99.90
17813;DHT22;9030;50.792;8.320;2023-03-05T05:09:36;1.30;99.90
17813;DHT22;9030;50.792;8.320;2023-03-05T05:12:06;1.30;99.90
17813;DHT22;9030;50.792;8.320;2023-03-05T05:14:33;1.30;99.90
17813;DHT22;9030;50.792;8.320;2023-03-05T05:17:00;1.40;99.90
17813;DHT22;9030;50.792;8.320;2023-03-05T05:19:29;1.40;99.90
17813;DHT22;9030;50.792;8.320;2023-03-05T05:21:59;1.30;99.90
17813;DHT22;9030;50.792;8.320;2023-03-05T05:24:30;1.40;99.90
17813;DHT22;9030;50.792;8.320;2023-03-05T05:26:57;1.40;99.90
17813;DHT22;9030;50.792;8.320;2023-03-05T05:29:25;1.40;99.90
17813;DHT22;9030;50.792;8.320;2023-03-05T05:31:52;1.40;99.90
17813;DHT22;9030;50.792;8.320;2023-03-05T05:34:21;1.50;99.90
17813;DHT22;9030;50.792;8.320;2023-03-05T05:36:49;1.40;99.90
17813;DHT22;9030;50.792;8.320;2023-03-05T05:39:19;1.40;99.90
17813;DHT22;9030;50.792;8.320;2023-03-05T05:41:49;1.50;99.90
17813;DHT22;9030;50.792;8.320;2023-03-05T05:44:19;1.40;99.90
17813;DHT22;9030;50.792;8.320;2023-03-05T05:46:54;1.40;99.90
17813;DHT22;9030;50.792;8.320;2023-03-05T05:49:21;1.40;99.90
17813;DHT22;9030;50.792;8.320;2023-03-05T05:51:49;1.30;99.90
17813;DHT22;9030;50.792;8.320;2023-03-05T05:54:17;1.40;99.90
17813;DHT22;9030;50.792;8.320;2023-03-05T05:56:45;1.40;99.90
17813;DHT22;9030;50.792;8.320;2023-03-05T05:59:13;1.30;99.90
17813;DHT22;9030;50.792;8.320;2023-03-05T06:01:41;1.30;99.90
17813;DHT22;9030;50.792;8.320;2023-03-05T06:04:13;1.30;99.90
17813;DHT22;9030;50.792;8.320;2023-03-05T06:06:40;1.30;99.90
17813;DHT22;9030;50.792;8.320;2023-03-05T06:09:09;1.30;99.90
17813;DHT22;9030;50.792;8.320;2023-03-05T06:11:36;1.40;99.90
17813;DHT22;9030;50.792;8.320;2023-03-05T06:14:05;1.30;99.90
17813;DHT22;9030;50.792;8.320;2023-03-05T06:16:33;1.40;99.90
17813;DHT22;9030;50.792;8.320;2023-03-05T06:19:00;1.50;99.90
17813;DHT22;9030;50.792;8.320;2023-03-05T06:21:32;1.40;99.90
17813;DHT22;9030;50.792;8.320;2023-03-05T06:23:59;1.40;99.90
17813;DHT22;9030;50.792;8.320;2023-03-05T06:26:26;1.50;99.90
17813;DHT22;9030;50.792;8.320;2023-03-05T06:28:53;1.50;99.90
17813;DHT22;9030;50.792;8.320;2023-03-05T06:31:22;1.50;99.90
17813;DHT22;9030;50.792;8.320;2023-03-05T06:33:50;1.60;99.90
17813;DHT22;9030;50.792;8.320;2023-03-05T06:36:20;1.60;99.90
17813;DHT22;9030;50.792;8.320;2023-03-05T06:38:49;1.80;99.90
17813;DHT22;9030;50.792;8.320;2023-03-05T06:41:20;1.80;99.90
17813;DHT22;9030;50.792;8.320;2023-03-05T06:43:50;1.80;99.90
17813;DHT22;9030;50.792;8.320;2023-03-05T06:46:19;1.80;99.90
17813;DHT22;9030;50.792;8.320;2023-03-05T06:48:47;1.80;99.90
17813;DHT22;9030;50.792;8.320;2023-03-05T06:51:21;1.90;99.90
17813;DHT22;9030;50.792;8.320;2023-03-05T06:53:53;1.90;99.90
17813;DHT22;9030;50.792;8.320;2023-03-05T06:56:28;2.00;99.90
17813;DHT22;9030;50.792;8.320;2023-03-05T06:58:55;2.10;99.90
17813;DHT22;9030;50.792;8.320;2023-03-05T07:01:25;2.10;99.90
17813;DHT22;9030;50.792;8.320;2023-03-05T07:03:55;2.20;99.90
17813;DHT22;9030;50.792;8.320;2023-03-05T07:12:55;2.20;99.90
17813;DHT22;9030;50.792;8.320;2023-03-05T07:15:59;2.30;99.90
17813;DHT22;9030;50.792;8.320;2023-03-05T07:19:11;2.20;99.90
17813;DHT22;9030;50.792;8.320;2023-03-05T07:21:57;2.20;99.90
17813;DHT22;9030;50.792;8.320;2023-03-05T07:24:24;2.30;99.90
17813;DHT22;9030;50.792;8.320;2023-03-05T07:26:54;2.30;99.90
17813;DHT22;9030;50.792;8.320;2023-03-05T07:29:22;2.30;99.90
17813;DHT22;9030;50.792;8.320;2023-03-05T07:31:49;2.30;99.90
17813;DHT22;9030;50.792;8.320;2023-03-05T07:34:16;2.30;99.90
17813;DHT22;9030;50.792;8.320;2023-03-05T07:36:43;2.30;99.90
17813;DHT22;9030;50.792;8.320;2023-03-05T07:39:10;2.30;99.90
17813;DHT22;9030;50.792;8.320;2023-03-05T07:41:37;2.20;99.90
17813;DHT22;9030;50.792;8.320;2023-03-05T07:44:04;2.20;99.90
17813;DHT22;9030;50.792;8.320;2023-03-05T07:46:33;2.20;99.90
17813;DHT22;9030;50.792;8.320;2023-03-05T07:48:59;2.30;99.90
17813;DHT22;9030;50.792;8.320;2023-03-05T07:51:27;2.30;99.90
17813;DHT22;9030;50.792;8.320;2023-03-05T07:53:56;2.30;99.90
17813;DHT22;9030;50.792;8.320;2023-03-05T07:56:23;2.30;99.90
17813;DHT22;9030;50.792;8.320;2023-03-05T07:58:50;2.30;99.90
17813;DHT22;9030;50.792;8.320;2023-03-05T08:01:17;2.30;99.90
17813;DHT22;9030;50.792;8.320;2023-03-05T08:03:46;2.20;99.90
17813;DHT22;9030;50.792;8.320;2023-03-05T08:06:12;2.20;99.90
17813;DHT22;9030;50.792;8.320;2023-03-05T08:08:39;2.10;99.90
17813;DHT22;9030;50.792;8.320;2023-03-05T08:11:08;2.10;99.90
17813;DHT22;9030;50.792;8.320;2023-03-05T08:13:35;2.10;99.90
17813;DHT22;9030;50.792;8.320;2023-03-05T08:16:06;2.10;99.90
17813;DHT22;9030;50.792;8.320;2023-03-05T08:18:34;2.20;99.90
17813;DHT22;9030;50.792;8.320;2023-03-05T08:21:03;2.10;99.90
17813;DHT22;9030;50.792;8.320;2023-03-05T08:23:30;2.20;99.90
17813;DHT22;9030;50.792;8.320;2023-03-05T08:25:59;2.20;99.90
17813;DHT22;9030;50.792;8.320;2023-03-05T08:28:25;2.10;99.90
17813;DHT22;9030;50.792;8.320;2023-03-05T08:30:52;2.10;99.90
17813;DHT22;9030;50.792;8.320;2023-03-05T08:33:19;2.10;99.90
17813;DHT22;9030;50.792;8.320;2023-03-05T08:35:46;2.00;99.90
17813;DHT22;9030;50.792;8.320;2023-03-05T08:38:14;2.00;99.90
17813;DHT22;9030;50.792;8.320;2023-03-05T08:40:41;2.10;99.90
17813;DHT22;9030;50.792;8.320;2023-03-05T08:43:07;2.30;99.90
17813;DHT22;9030;50.792;8.320;2023-03-05T08:45:34;2.30;99.90
17813;DHT22;9030;50.792;8.320;2023-03-05T08:48:01;2.40;99.90
17813;DHT22;9030;50.792;8.320;2023-03-05T08:50:28;2.50;99.90
17813;DHT22;9030;50.792;8.320;2023-03-05T08:52:55;2.70;99.90
17813;DHT22;9030;50.792;8.320;2023-03-05T08:55:23;2.70;99.90
17813;DHT22;9030;50.792;8.320;2023-03-05T08:57:50;2.80;99.90
17813;DHT22;9030;50.792;8.320;2023-03-05T09:00:18;3.00;99.90
17813;DHT22;9030;50.792;8.320;2023-03-05T09:02:44;3.20;99.90
17813;DHT22;9030;50.792;8.320;2023-03-05T09:05:11;3.50;99.90
17813;DHT22;9030;50.792;8.320;2023-03-05T09:07:38;3.50;99.90
17813;DHT22;9030;50.792;8.320;2023-03-05T09:10:06;3.40;99.90
17813;DHT22;9030;50.792;8.320;2023-03-05T09:12:36;3.40;99.90
17813;DHT22;9030;50.792;8.320;2023-03-05T09:15:03;3.30;99.90
17813;DHT22;9030;50.792;8.320;2023-03-05T09:17:32;3.20;99.90
17813;DHT22;9030;50.792;8.320;2023-03-05T09:19:59;3.10;99.90
17813;DHT22;9030;50.792;8.320;2023-03-05T09:22:27;3.10;99.90
17813;DHT22;9030;50.792;8.320;2023-03-05T09:24:54;3.00;99.90
17813;DHT22;9030;50.792;8.320;2023-03-05T09:27:21;3.00;99.90
17813;DHT22;9030;50.792;8.320;2023-03-05T09:29:49;3.10;99.90
17813;DHT22;9030;50.792;8.320;2023-03-05T09:32:17;3.10;99.90
17813;DHT22;9030;50.792;8.320;2023-03-05T09:34:44;3.20;99.90
17813;DHT22;9030;50.792;8.320;2023-03-05T09:37:10;3.20;99.90
17813;DHT22;9030;50.792;8.320;2023-03-05T09:39:38;3.20;99.90
17813;DHT22;9030;50.792;8.320;2023-03-05T09:45:15;3.00;99.90
17813;DHT22;9030;50.792;8.320;2023-03-05T09:47:48;3.00;99.90
17813;DHT22;9030;50.792;8.320;2023-03-05T09:50:29;2.90;99.90
17813;DHT22;9030;50.792;8.320;2023-03-05T09:53:01;2.90;99.90
17813;DHT22;9030;50.792;8.320;2023-03-05T09:55:33;2.90;99.90
17813;DHT22;9030;50.792;8.320;2023-03-05T09:58:03;2.90;99.90
17813;DHT22;9030;50.792;8.320;2023-03-05T10:00:37;2.90;99.90
17813;DHT22;9030;50.792;8.320;2023-03-05T10:03:06;3.00;99.90
17813;DHT22;9030;50.792;8.320;2023-03-05T10:08:31;3.00;99.90
17813;DHT22;9030;50.792;8.320;2023-03-05T10:11:01;3.00;99.90
17813;DHT22;9030;50.792;8.320;2023-03-05T10:13:33;3.00;99.90
17813;DHT22;9030;50.792;8.320;2023-03-05T10:16:10;3.00;99.90
17813;DHT22;9030;50.792;8.320;2023-03-05T10:18:51;2.90;99.90
17813;DHT22;9030;50.792;8.320;2023-03-05T10:21:27;2.90;99.90
17813;DHT22;9030;50.792;8.320;2023-03-05T10:24:02;3.00;99.90
17813;DHT22;9030;50.792;8.320;2023-03-05T10:26:43;3.00;99.90
17813;DHT22;9030;50.792;8.320;2023-03-05T10:29:21;3.00;99.90
17813;DHT22;9030;50.792;8.320;2023-03-05T10:32:06;2.90;99.90
17813;DHT22;9030;50.792;8.320;2023-03-05T10:34:51;3.10;99.90
17813;DHT22;9030;50.792;8.320;2023-03-05T10:37:32;3.50;99.90
17813;DHT22;9030;50.792;8.320;2023-03-05T10:40:16;3.70;99.90
17813;DHT22;9030;50.792;8.320;2023-03-05T10:42:52;3.90;99.90
17813;DHT22;9030;50.792;8.320;2023-03-05T10:45:22;3.90;99.90
17813;DHT22;9030;50.792;8.320;2023-03-05T10:47:54;4.00;99.90
17813;DHT22;9030;50.792;8.320;2023-03-05T10:50:24;4.00;99.90
17813;DHT22;9030;50.792;8.320;2023-03-05T10:52:56;4.00;99.90
17813;DHT22;9030;50.792;8.320;2023-03-05T10:55:26;4.00;99.90
17813;DHT22;9030;50.792;8.320;2023-03-05T10:57:53;3.70;99.90
17813;DHT22;9030;50.792;8.320;2023-03-05T11:00:22;3.70;99.90
17813;DHT22;9030;50.792;8.320;2023-03-05T11:02:57;3.70;99.90
17813;DHT22;9030;50.792;8.320;2023-03-05T11:05:45;3.90;99.90
17813;DHT22;9030;50.792;8.320;2023-03-05T11:08:28;4.10;99.90
17813;DHT22;9030;50.792;8.320;2023-03-05T11:11:11;4.40;99.90
17813;DHT22;9030;50.792;8.320;2023-03-05T11:13:49;4.40;99.90
17813;DHT22;9030;50.792;8.320;2023-03-05T11:16:19;4.40;99.90
17813;DHT22;9030;50.792;8.320;2023-03-05T11:18:47;4.10;99.90
17813;DHT22;9030;50.792;8.320;2023-03-05T11:21:20;4.10;99.90
17813;DHT22;9030;50.792;8.320;2023-03-05T11:24:05;4.10;99.90
17813;DHT22;9030;50.792;8.320;2023-03-05T11:26:32;4.10;99.90
17813;DHT22;9030;50.792;8.320;2023-03-05T11:29:01;3.90;99.90
17813;DHT22;9030;50.792;8.320;2023-03-05T11:31:30;3.70;99.90
17813;DHT22;9030;50.792;8.320;2023-03-05T11:34:01;3.50;99.90
17813;DHT22;9030;50.792;8.320;2023-03-05T11:36:31;3.30;99.90
17813;DHT22;9030;50.792;8.320;2023-03-05T11:39:08;3.20;99.90
17813;DHT22;9030;50.792;8.320;2023-03-05T11:41:38;3.20;99.90
17813;DHT22;9030;50.792;8.320;2023-03-05T11:44:11;3.10;99.90
17813;DHT22;9030;50.792;8.320;2023-03-05T11:46:43;3.20;99.90
17813;DHT22;9030;50.792;8.320;2023-03-05T11:49:15;3.30;99.90
17813;DHT22;9030;50.792;8.320;2023-03-05T11:51:48;3.40;99.90
17813;DHT22;9030;50.792;8.320;2023-03-05T11:54:22;3.40;99.90
17813;DHT22;9030;50.792;8.320;2023-03-05T11:56:50;3.20;99.90
17813;DHT22;9030;50.792;8.320;2023-03-05T11:59:21;3.00;99.90
17813;DHT22;9030;50.792;8.320;2023-03-05T12:01:51;3.00;99.90
17813;DHT22;9030;50.792;8.320;2023-03-05T12:04:20;3.00;99.90
17813;DHT22;9030;50.792;8.320;2023-03-05T12:06:48;2.90;99.90
17813;DHT22;9030;50.792;8.320;2023-03-05T12:09:21;3.00;99.90
17813;DHT22;9030;50.792;8.320;2023-03-05T12:11:52;3.00;99.90
17813;DHT22;9030;50.792;8.320;2023-03-05T12:14:26;3.00;99.90
17813;DHT22;9030;50.792;8.320;2023-03-05T12:16:59;3.10;99.90
17813;DHT22;9030;50.792;8.320;2023-03-05T12:19:44;3.30;99.90
17813;DHT22;9030;50.792;8.320;2023-03-05T12:22:16;3.40;99.90
17813;DHT22;9030;50.792;8.320;2023-03-05T12:24:45;3.50;99.90
17813;DHT22;9030;50.792;8.320;2023-03-05T12:27:14;3.40;99.90
17813;DHT22;9030;50.792;8.320;2023-03-05T12:29:46;3.50;99.90
17813;DHT22;9030;50.792;8.320;2023-03-05T12:35:27;3.60;99.90
17813;DHT22;9030;50.792;8.320;2023-03-05T12:38:16;3.70;99.90
17813;DHT22;9030;50.792;8.320;2023-03-05T12:40:43;3.80;99.90
17813;DHT22;9030;50.792;8.320;2023-03-05T12:43:28;3.90;99.90
17813;DHT22;9030;50.792;8.320;2023-03-05T12:46:23;3.90;99.90
17813;DHT22;9030;50.792;8.320;2023-03-05T12:48:51;3.90;99.90
17813;DHT22;9030;50.792;8.320;2023-03-05T12:51:34;3.90;99.90
17813;DHT22;9030;50.792;8.320;2023-03-05T12:54:28;3.80;99.90
17813;DHT22;9030;50.792;8.320;2023-03-05T12:56:57;3.70;99.90
17813;DHT22;9030;50.792;8.320;2023-03-05T12:59:29;3.70;99.90
17813;DHT22;9030;50.792;8.320;2023-03-05T13:02:00;3.70;99.90
17813;DHT22;9030;50.792;8.320;2023-03-05T13:04:29;3.80;99.90
17813;DHT22;9030;50.792;8.320;2023-03-05T13:07:00;3.90;99.90
17813;DHT22;9030;50.792;8.320;2023-03-05T13:09:29;4.10;99.90
17813;DHT22;9030;50.792;8.320;2023-03-05T13:11:58;4.30;99.90
17813;DHT22;9030;50.792;8.320;2023-03-05T13:14:32;4.40;99.90
17813;DHT22;9030;50.792;8.320;2023-03-05T13:17:00;4.40;99.90
17813;DHT22;9030;50.792;8.320;2023-03-05T13:19:30;4.50;99.90
17813;DHT22;9030;50.792;8.320;2023-03-05T13:22:03;4.40;99.90
17813;DHT22;9030;50.792;8.320;2023-03-05T13:24:36;4.30;99.90
17813;DHT22;9030;50.792;8.320;2023-03-05T13:27:18;4.30;99.90
17813;DHT22;9030;50.792;8.320;2023-03-05T13:29:50;4.20;99.90
17813;DHT22;9030;50.792;8.320;2023-03-05T13:32:22;4.00;99.90
17813;DHT22;9030;50.792;8.320;2023-03-05T13:34:52;3.90;99.90
17813;DHT22;9030;50.792;8.320;2023-03-05T13:37:23;3.80;99.90
17813;DHT22;9030;50.792;8.320;2023-03-05T13:39:54;3.80;99.90
17813;DHT22;9030;50.792;8.320;2023-03-05T13:42:23;3.80;99.90
17813;DHT22;9030;50.792;8.320;2023-03-05T13:44:54;3.80;99.90
17813;DHT22;9030;50.792;8.320;2023-03-05T13:47:23;3.80;99.90
17813;DHT22;9030;50.792;8.320;2023-03-05T13:49:55;3.80;99.90
17813;DHT22;9030;50.792;8.320;2023-03-05T13:52:27;3.70;99.90
17813;DHT22;9030;50.792;8.320;2023-03-05T13:54:54;3.70;99.90
17813;DHT22;9030;50.792;8.320;2023-03-05T13:57:35;3.60;99.90
17813;DHT22;9030;50.792;8.320;2023-03-05T14:00:04;3.50;99.90
17813;DHT22;9030;50.792;8.320;2023-03-05T14:02:32;3.60;99.90
17813;DHT22;9030;50.792;8.320;2023-03-05T14:04:59;3.50;99.90
17813;DHT22;9030;50.792;8.320;2023-03-05T14:07:34;3.50;99.90
17813;DHT22;9030;50.792;8.320;2023-03-05T14:10:03;3.60;99.90
17813;DHT22;9030;50.792;8.320;2023-03-05T14:12:34;3.60;99.90
17813;DHT22;9030;50.792;8.320;2023-03-05T14:15:03;3.60;99.90
17813;DHT22;9030;50.792;8.320;2023-03-05T14:17:37;3.80;99.90
17813;DHT22;9030;50.792;8.320;2023-03-05T14:20:21;3.80;99.90
17813;DHT22;9030;50.792;8.320;2023-03-05T14:22:51;3.90;99.90
17813;DHT22;9030;50.792;8.320;2023-03-05T14:25:29;3.90;99.90
17813;DHT22;9030;50.792;8.320;2023-03-05T14:27:59;4.00;99.90
17813;DHT22;9030;50.792;8.320;2023-03-05T14:30:26;4.00;99.90
17813;DHT22;9030;50.792;8.320;2023-03-05T14:32:56;3.90;99.90
17813;DHT22;9030;50.792;8.320;2023-03-05T14:35:26;3.80;99.90
17813;DHT22;9030;50.792;8.320;2023-03-05T14:37:57;3.70;99.90
17813;DHT22;9030;50.792;8.320;2023-03-05T14:40:29;3.70;99.90
17813;DHT22;9030;50.792;8.320;2023-03-05T14:42:57;3.60;99.90
17813;DHT22;9030;50.792;8.320;2023-03-05T14:45:26;3.50;99.90
17813;DHT22;9030;50.792;8.320;2023-03-05T14:47:55;3.50;99.90
17813;DHT22;9030;50.792;8.320;2023-03-05T14:50:24;3.50;99.90
17813;DHT22;9030;50.792;8.320;2023-03-05T14:52:55;3.50;99.90
17813;DHT22;9030;50.792;8.320;2023-03-05T14:55:25;3.50;99.90
17813;DHT22;9030;50.792;8.320;2023-03-05T14:57:58;3.40;99.90
17813;DHT22;9030;50.792;8.320;2023-03-05T15:00:27;3.40;99.90
17813;DHT22;9030;50.792;8.320;2023-03-05T15:02:54;3.40;99.90
17813;DHT22;9030;50.792;8.320;2023-03-05T15:05:20;3.30;99.90
17813;DHT22;9030;50.792;8.320;2023-03-05T15:07:47;3.30;99.90
17813;DHT22;9030;50.792;8.320;2023-03-05T15:10:17;3.30;99.90
17813;DHT22;9030;50.792;8.320;2023-03-05T15:12:44;3.20;99.90
17813;DHT22;9030;50.792;8.320;2023-03-05T15:15:13;3.20;99.90
17813;DHT22;9030;50.792;8.320;2023-03-05T15:17:41;3.10;99.90
17813;DHT22;9030;50.792;8.320;2023-03-05T15:20:14;3.10;99.90
17813;DHT22;9030;50.792;8.320;2023-03-05T15:22:41;3.00;99.90
17813;DHT22;9030;50.792;8.320;2023-03-05T15:25:08;3.00;99.90
17813;DHT22;9030;50.792;8.320;2023-03-05T15:27:36;2.90;99.90
17813;DHT22;9030;50.792;8.320;2023-03-05T15:30:05;2.90;99.90
17813;DHT22;9030;50.792;8.320;2023-03-05T15:32:32;3.00;99.90
17813;DHT22;9030;50.792;8.320;2023-03-05T15:34:59;2.90;99.90
17813;DHT22;9030;50.792;8.320;2023-03-05T15:37:26;2.90;99.90
17813;DHT22;9030;50.792;8.320;2023-03-05T15:39:52;2.90;99.90
17813;DHT22;9030;50.792;8.320;2023-03-05T15:42:19;3.00;99.90
17813;DHT22;9030;50.792;8.320;2023-03-05T15:44:47;2.90;99.90
17813;DHT22;9030;50.792;8.320;2023-03-05T15:47:14;2.90;99.90
17813;DHT22;9030;50.792;8.320;2023-03-05T15:49:40;2.90;99.90
17813;DHT22;9030;50.792;8.320;2023-03-05T15:52:07;2.90;99.90
17813;DHT22;9030;50.792;8.320;2023-03-05T15:54:34;2.90;99.90
17813;DHT22;9030;50.792;8.320;2023-03-05T15:57:01;3.00;99.90
17813;DHT22;9030;50.792;8.320;2023-03-05T15:59:28;3.00;99.90
17813;DHT22;9030;50.792;8.320;2023-03-05T16:01:56;3.00;99.90
17813;DHT22;9030;50.792;8.320;2023-03-05T16:04:23;3.00;99.90
17813;DHT22;9030;50.792;8.320;2023-03-05T16:06:50;3.00;99.90
17813;DHT22;9030;50.792;8.320;2023-03-05T16:09:18;3.00;99.90
17813;DHT22;9030;50.792;8.320;2023-03-05T16:11:46;3.00;99.90
17813;DHT22;9030;50.792;8.320;2023-03-05T16:14:18;3.00;99.90
17813;DHT22;9030;50.792;8.320;2023-03-05T16:16:46;3.10;99.90
17813;DHT22;9030;50.792;8.320;2023-03-05T16:19:16;3.10;99.90
17813;DHT22;9030;50.792;8.320;2023-03-05T16:21:44;3.00;99.90
17813;DHT22;9030;50.792;8.320;2023-03-05T16:24:11;3.00;99.90
17813;DHT22;9030;50.792;8.320;2023-03-05T16:26:39;3.00;99.90
17813;DHT22;9030;50.792;8.320;2023-03-05T16:29:06;3.00;99.90
17813;DHT22;9030;50.792;8.320;2023-03-05T16:31:34;3.00;99.90
17813;DHT22;9030;50.792;8.320;2023-03-05T16:34:02;2.90;99.90